Thursday, May 25, 2017, 8:25 AM EDT

KW99, Petersburg, Grant County Airport

Location: Petersburg, WV, United States Lat: 38.983
Local Time: 8:25 AM EDT (12:25 GMT) Lon: -79.133
Time Zone: US/Eastern Elev: 961 ft

Show me the last for .
Show Decoded

2017-05-25 07:55 METAR KW99 251155Z AUTO 00000KT 10SM OVC009 14/13 A2951 RMK AO2 60061 70099
                 T01420130 10148 20136 =
2017-05-25 07:35 METAR KW99 251135Z AUTO 00000KT 10SM BKN009 OVC017 14/13 A2951 RMK AO2 T01410132
                 =
2017-05-25 07:15 METAR KW99 251115Z AUTO 00000KT 10SM SCT009 BKN017 OVC028 14/13 A2950 RMK AO2
                 T01400131 =
2017-05-25 06:55 METAR KW99 251055Z AUTO 32003KT 10SM SCT019 BKN024 OVC090 14/13 A2948 RMK AO2
                 P0008 T01360130 =
2017-05-25 06:35 METAR KW99 251035Z AUTO 03007KT 10SM -RA SCT009 BKN023 OVC110 14/13 A2948 RMK
                 AO2 P0007 T01370132 =
2017-05-25 06:15 METAR KW99 251015Z AUTO 36003KT 5SM RA BKN007 BKN011 OVC017 14/14 A2951 RMK AO2
                 P0005 T01400135 =
2017-05-25 05:55 METAR KW99 250955Z AUTO 00000KT 4SM RA BKN009 BKN015 OVC025 14/14 A2953 RMK AO2
                 P0017 T01400135 =
2017-05-25 05:35 METAR KW99 250935Z AUTO 00000KT 2SM +RA BKN004 OVC012 14/14 A2952 RMK AO2 P0010
                 T01410138 =
2017-05-25 05:15 METAR KW99 250915Z AUTO 00000KT 4SM RA SCT004 BKN014 OVC024 14/14 A2953 RMK AO2
                 P0001 T01410137 =
2017-05-25 04:55 METAR KW99 250855Z AUTO 00000KT 5SM -RA SCT006 SCT015 OVC024 14/14 A2953 RMK AO2
                 P0008 60036 T01420137 =
2017-05-25 04:35 METAR KW99 250835Z AUTO 31003KT 5SM RA BKN006 OVC015 14/14 A2952 RMK AO2 P0006
                 T01430140 =
2017-05-25 04:15 METAR KW99 250815Z AUTO 25003KT 7SM RA SCT006 BKN015 OVC023 15/14 A2952 RMK AO2
                 P0002 T01450140 =
2017-05-25 03:55 METAR KW99 250755Z AUTO 00000KT 7SM RA BKN015 OVC025 15/14 A2951 RMK AO2 P0017
                 T01450140 =
2017-05-25 03:35 METAR KW99 250735Z AUTO 00000KT 3SM +RA OVC015 15/14 A2952 RMK AO2 P0012
                 T01450140 =
2017-05-25 03:15 METAR KW99 250715Z AUTO 31003KT 7SM RA SCT015 OVC023 15/14 A2952 RMK AO2 P0003
                 T01450141 =
2017-05-25 02:55 METAR KW99 250655Z AUTO 33003KT 10SM RA SCT013 BKN019 OVC027 15/14 A2952 RMK AO2
                 P0011 T01460142 =
2017-05-25 02:35 METAR KW99 250635Z AUTO 00000KT 4SM RA SCT005 BKN016 OVC021 15/14 A2953 RMK AO2
                 P0008 T01460142 =
2017-05-25 02:15 METAR KW99 250615Z AUTO 00000KT 4SM RA OVC018 15/14 A2955 RMK AO2 P0003
                 T01470142 =
2017-05-25 01:55 METAR KW99 250555Z AUTO 00000KT 5SM +RA OVC020 15/14 A2955 RMK AO2 P0002 60032
                 T01480142 10156 20148 401730143 =
2017-05-25 01:35 METAR KW99 250535Z AUTO 31003KT 7SM DZ OVC020 15/14 A2956 RMK AO2 T01480143 =
2017-05-25 01:15 METAR KW99 250515Z AUTO 30004KT 10SM DZ OVC020 15/14 A2957 RMK AO2 T01500143 =
2017-05-25 00:55 METAR KW99 250455Z AUTO 00000KT 10SM -RA OVC022 15/14 A2957 RMK AO2 P0003
                 T01500143 =
2017-05-25 00:35 METAR KW99 250435Z AUTO 32003KT 10SM -RA BKN022 OVC026 15/15 A2959 RMK AO2 P0002
                 T01500145 =
2017-05-25 00:15 METAR KW99 250415Z AUTO 00000KT 10SM -RA OVC024 15/15 A2959 RMK AO2 P0002
                 T01500145 =
2017-05-24 23:55 METAR KW99 250355Z AUTO 02003KT 7SM -RA BKN021 OVC028 15/15 A2960 RMK AO2 P0003
                 T01510145 =
2017-05-24 23:35 METAR KW99 250335Z AUTO 36003KT 10SM RA OVC021 15/15 A2961 RMK AO2 P0002
                 T01510146 =
2017-05-24 23:15 METAR KW99 250315Z AUTO 33003KT 10SM RA BKN023 OVC027 15/15 A2962 RMK AO2 P0001
                 T01500146 =
2017-05-24 22:55 METAR KW99 250255Z AUTO 00000KT 5SM RA SCT016 BKN023 OVC029 15/15 A2963 RMK AO2
                 P0013 60024 T01510147 =
2017-05-24 22:35 METAR KW99 250235Z AUTO 00000KT 2 1/2SM +RA BKN018 OVC023 15/15 A2964 RMK AO2
                 P0008 T01520147 =
2017-05-24 22:15 METAR KW99 250215Z AUTO 29004KT 7SM -RA SCT017 BKN023 OVC028 15/15 A2963 RMK AO2
                 P0001 T01510147 =
2017-05-24 21:55 METAR KW99 250155Z AUTO 00000KT 7SM -RA OVC026 15/15 A2963 RMK AO2 P0004
                 T01520147 =
2017-05-24 21:35 METAR KW99 250135Z AUTO 00000KT 7SM RA OVC026 15/15 A2964 RMK AO2 P0002
                 T01530148 =
2017-05-24 21:15 METAR KW99 250115Z AUTO 00000KT 7SM -RA SCT019 OVC028 15/15 A2964 RMK AO2
                 T01540150 =
2017-05-24 20:55 METAR KW99 250055Z AUTO 26004KT 5SM -RA SCT014 BKN021 OVC026 16/15 A2965 RMK AO2
                 P0007 T01550151 =
2017-05-24 20:35 METAR KW99 250035Z AUTO 00000KT 7SM -RA OVC021 16/15 A2964 RMK AO2 P0006
                 T01550150 =
2017-05-24 20:15 METAR KW99 250015Z AUTO 00000KT 7SM -RA BKN019 OVC024 16/15 A2964 RMK AO2 P0002
                 T01550150 =
2017-05-24 19:55 METAR KW99 242355Z AUTO 00000KT 10SM RA OVC019 16/15 A2965 RMK AO2 60001
                 T01560151 10173 20156 =
2017-05-24 19:35 METAR KW99 242335Z AUTO 00000KT 10SM DZ OVC021 16/15 A2964 RMK AO2 T01570151 =
2017-05-24 19:15 METAR KW99 242315Z AUTO 00000KT 10SM OVC023 16/15 A2965 RMK AO2 T01580152 =
2017-05-24 18:55 METAR KW99 242255Z AUTO 00000KT 7SM OVC023 16/15 A2965 RMK AO2 P0001 T01580153 =
2017-05-24 18:35 METAR KW99 242235Z AUTO 00000KT 5SM -RA OVC023 16/15 A2965 RMK AO2 P0001
                 T01580153 =
2017-05-24 18:15 METAR KW99 242215Z AUTO 00000KT 5SM DZ OVC023 16/15 A2965 RMK AO2 T01580150 =
2017-05-24 17:55 METAR KW99 242155Z AUTO 00000KT 3SM DZ OVC021 16/15 A2965 RMK AO2 T01600152 =
2017-05-24 17:35 METAR KW99 242135Z AUTO 00000KT 4SM DZ OVC021 16/15 A2966 RMK AO2 T01630151 =
2017-05-24 17:15 METAR KW99 242115Z AUTO 00000KT 10SM RA OVC023 17/15 A2967 RMK AO2 T01670148 =
2017-05-24 16:55 METAR KW99 242055Z AUTO 00000KT 10SM OVC023 17/15 A2967 RMK AO2 T01670148 =
2017-05-24 16:35 METAR KW99 242035Z AUTO 00000KT 10SM OVC021 17/15 A2967 RMK AO2 LTG DSNT SW
                 T01700147 =
2017-05-24 16:15 METAR KW99 242015Z AUTO 00000KT 10SM OVC023 17/14 A2967 RMK AO2 T01700143 =
2017-05-24 15:55 METAR KW99 241955Z AUTO 09004KT 10SM OVC025 17/14 A2966 RMK AO2 T01720144 =
2017-05-24 15:35 METAR KW99 241935Z AUTO 11005KT 10SM OVC025 17/14 A2967 RMK AO2 T01720143 =
2017-05-24 15:15 METAR KW99 241915Z AUTO 11004KT 10SM OVC023 17/14 A2968 RMK AO2 T01710144 =
2017-05-24 14:55 METAR KW99 241855Z AUTO 07005KT 10SM BKN023 OVC028 17/14 A2968 RMK AO2 T01700144
                 =
2017-05-24 14:35 METAR KW99 241835Z AUTO 09004KT 10SM SCT018 OVC023 17/15 A2969 RMK AO2 T01710149
                 =
2017-05-24 14:15 METAR KW99 241815Z AUTO 08003KT 10SM OVC020 17/14 A2968 RMK AO2 T01700143 =
2017-05-24 13:55 METAR KW99 241755Z AUTO 08003KT 10SM OVC023 17/14 A2968 RMK AO2 60003 T01670143
                 10167 20146 =
2017-05-24 13:35 METAR KW99 241735Z AUTO 00000KT 10SM OVC025 17/14 A2970 RMK AO2 T01660142 =
2017-05-24 13:15 METAR KW99 241715Z AUTO 00000KT 10SM OVC023 17/14 A2969 RMK AO2 T01660144 =
2017-05-24 12:55 METAR KW99 241655Z AUTO 10003KT 10SM OVC023 16/14 A2969 RMK AO2 T01620143 =
2017-05-24 12:35 METAR KW99 241635Z AUTO 00000KT 10SM OVC023 16/14 A2970 RMK AO2 T01590144 =
2017-05-24 12:15 METAR KW99 241615Z AUTO 00000KT 10SM OVC023 16/14 A2971 RMK AO2 T01550143 =
2017-05-24 11:55 METAR KW99 241555Z AUTO 00000KT 5SM BR SCT003 OVC023 16/15 A2971 RMK AO2 P0001
                 T01550145 =
2017-05-24 11:35 METAR KW99 241535Z AUTO 00000KT 2SM -DZ SCT003 OVC023 15/15 A2972 RMK AO2 P0001
                 T01520145 =
2017-05-24 11:15 METAR KW99 241515Z AUTO 00000KT 2 1/2SM -DZ SCT005 BKN016 OVC023 15/15 A2972 RMK
                 AO2 P0001 T01510145 =
2017-05-24 10:55 METAR KW99 241455Z AUTO 00000KT 2 1/2SM -RA BKN014 OVC020 15/14 A2972 RMK AO2
                 60002 T01500139 =
2017-05-24 10:35 METAR KW99 241435Z AUTO 00000KT 3SM -DZ SCT005 BKN014 OVC020 15/14 A2972 RMK AO2
                 T01500143 =
2017-05-24 10:15 METAR KW99 241415Z AUTO 00000KT 2 1/2SM RA SCT005 OVC016 15/15 A2970 RMK AO2
                 T01500145 =
2017-05-24 09:55 METAR KW99 241355Z AUTO 00000KT 4SM -DZ SCT007 OVC016 15/14 A2972 RMK AO2 P0001
                 T01470138 =
2017-05-24 09:35 METAR KW99 241335Z AUTO 00000KT 3SM DZ BKN007 OVC018 15/14 A2972 RMK AO2 P0001
                 T01480139 =
2017-05-24 09:15 METAR KW99 241315Z AUTO 00000KT 4SM RA SCT005 BKN009 OVC021 15/14 A2973 RMK AO2
                 P0001 T01500142 =
2017-05-24 08:55 METAR KW99 241255Z AUTO 00000KT 7SM DZ OVC019 15/14 A2974 RMK AO2 LTG DSNT SE
                 P0001 T01500140 =
2017-05-24 08:35 METAR KW99 241235Z AUTO 00000KT 5SM RA BKN013 OVC018 15/14 A2972 RMK AO2
                 T01480142 =

Support USWX by starting your Amazon purchase here.